createdAt,value
2023-04-29T00:01:24.676Z,23.50
2023-04-29T00:03:53.408Z,25.93
2023-04-29T00:06:22.581Z,26.73
2023-04-29T00:08:53.272Z,29.87
2023-04-29T00:11:21.746Z,30.00
2023-04-29T00:13:50.037Z,32.57
2023-04-29T00:16:18.685Z,33.90
2023-04-29T00:18:47.284Z,34.17
2023-04-29T00:21:15.900Z,37.27
2023-04-29T00:23:44.093Z,35.43
2023-04-29T00:26:14.064Z,36.60
2023-04-29T00:28:46.106Z,36.80
2023-04-29T00:31:14.884Z,36.10
2023-04-29T00:33:43.725Z,36.93
2023-04-29T00:36:12.024Z,38.00
2023-04-29T00:38:40.296Z,38.57
2023-04-29T00:41:08.513Z,38.70
2023-04-29T00:43:38.177Z,40.50
2023-04-29T00:46:06.626Z,39.50
2023-04-29T00:48:34.975Z,41.43
2023-04-29T00:51:04.043Z,40.20
2023-04-29T00:53:32.897Z,41.10
2023-04-29T00:56:02.752Z,39.43
2023-04-29T00:58:33.658Z,37.27
2023-04-29T01:01:04.789Z,43.33
2023-04-29T01:03:33.539Z,40.30
2023-04-29T01:06:14.397Z,39.70
2023-04-29T01:08:53.559Z,44.27
2023-04-29T01:11:24.756Z,43.17
2023-04-29T01:14:00.770Z,42.60
2023-04-29T01:16:38.349Z,40.33
2023-04-29T01:19:21.356Z,41.13
2023-04-29T01:21:50.103Z,41.60
2023-04-29T01:24:19.863Z,40.13
2023-04-29T01:26:58.698Z,39.57
2023-04-29T01:29:47.488Z,38.70
2023-04-29T01:32:19.940Z,38.90
2023-04-29T01:34:59.594Z,43.07
2023-04-29T01:37:40.362Z,41.20
2023-04-29T01:40:17.301Z,38.97
2023-04-29T01:43:04.367Z,39.83
2023-04-29T01:45:36.573Z,37.50
2023-04-29T01:48:06.304Z,36.73
2023-04-29T01:50:34.656Z,38.37
2023-04-29T01:53:17.563Z,35.80
2023-04-29T01:55:49.058Z,38.07
2023-04-29T01:58:43.321Z,37.63
2023-04-29T02:01:30.282Z,38.33
2023-04-29T02:03:59.461Z,34.33
2023-04-29T02:06:28.079Z,33.57
2023-04-29T02:09:00.957Z,32.47
2023-04-29T02:11:30.695Z,31.90
2023-04-29T02:13:59.671Z,33.60
2023-04-29T02:16:29.062Z,29.53
2023-04-29T02:19:00.516Z,29.20
2023-04-29T02:21:28.850Z,30.90
2023-04-29T02:23:57.180Z,27.63
2023-04-29T02:26:26.594Z,31.03
2023-04-29T02:28:58.646Z,28.53
2023-04-29T02:31:29.026Z,33.47
2023-04-29T02:33:57.455Z,31.73
2023-04-29T02:36:25.915Z,31.83
2023-04-29T02:38:55.901Z,32.77
2023-04-29T02:41:25.972Z,29.10
2023-04-29T02:43:54.303Z,30.23
2023-04-29T02:46:24.209Z,30.10
2023-04-29T02:48:53.116Z,30.73
2023-04-29T02:51:21.428Z,31.23
2023-04-29T02:53:50.472Z,31.13
2023-04-29T02:56:18.745Z,29.10
2023-04-29T02:58:47.154Z,30.63
2023-04-29T03:01:15.465Z,32.90
2023-04-29T03:03:45.338Z,32.20
2023-04-29T03:06:13.859Z,30.23
2023-04-29T03:08:42.117Z,31.83
2023-04-29T03:11:10.442Z,33.30
2023-04-29T03:13:39.837Z,33.00
2023-04-29T03:16:09.971Z,36.57
2023-04-29T03:18:38.669Z,35.67
2023-04-29T03:21:08.383Z,33.53
2023-04-29T03:23:36.675Z,33.70
2023-04-29T03:26:06.381Z,33.80
2023-04-29T03:28:34.702Z,35.10
2023-04-29T03:31:03.176Z,33.90
2023-04-29T03:33:31.613Z,33.13
2023-04-29T03:35:59.993Z,34.10
2023-04-29T03:38:52.479Z,31.60
2023-04-29T03:41:21.282Z,29.47
2023-04-29T03:43:49.561Z,29.97
2023-04-29T03:46:17.859Z,29.80
2023-04-29T03:48:46.687Z,27.00
2023-04-29T03:51:15.307Z,29.63
2023-04-29T03:53:43.764Z,25.03
2023-04-29T03:56:13.521Z,27.43
2023-04-29T03:58:41.853Z,32.37
2023-04-29T04:01:10.782Z,32.93
2023-04-29T04:03:47.366Z,25.10
2023-04-29T04:06:15.965Z,23.27
2023-04-29T04:08:44.615Z,24.30
2023-04-29T04:11:21.344Z,20.50
2023-04-29T04:13:55.995Z,22.90
2023-04-29T04:16:25.722Z,23.53
2023-04-29T04:18:54.260Z,20.20
2023-04-29T04:21:22.518Z,21.90
2023-04-29T04:23:59.574Z,21.07
2023-04-29T04:26:31.431Z,20.43
2023-04-29T04:29:08.403Z,20.00
2023-04-29T04:31:47.122Z,20.53
2023-04-29T04:34:17.098Z,18.80
2023-04-29T04:36:47.537Z,19.60
2023-04-29T04:39:15.962Z,17.77
2023-04-29T04:41:45.613Z,18.60
2023-04-29T04:44:14.483Z,48.70
2023-04-29T04:46:52.395Z,25.13
2023-04-29T04:49:37.620Z,20.07
2023-04-29T04:52:06.560Z,18.50
2023-04-29T04:54:35.526Z,20.10
2023-04-29T04:57:18.646Z,18.07
2023-04-29T04:59:47.002Z,17.87
2023-04-29T05:02:15.368Z,18.70
2023-04-29T05:04:43.936Z,20.07
2023-04-29T05:07:14.015Z,21.93
2023-04-29T05:10:01.720Z,19.53
2023-04-29T05:12:32.522Z,19.37
2023-04-29T05:15:02.395Z,21.23
2023-04-29T05:17:31.769Z,21.10
2023-04-29T05:20:00.959Z,21.03
2023-04-29T05:22:30.617Z,21.00
2023-04-29T05:25:02.863Z,19.80
2023-04-29T05:27:34.612Z,18.33
2023-04-29T05:30:05.413Z,19.57
2023-04-29T05:32:35.196Z,19.30
2023-04-29T05:35:06.641Z,28.60
2023-04-29T05:37:36.702Z,22.30
2023-04-29T05:40:14.399Z,23.00
2023-04-29T05:42:45.274Z,24.07
2023-04-29T05:45:13.954Z,20.27
2023-04-29T05:47:42.463Z,20.03
2023-04-29T05:50:11.552Z,19.50
2023-04-29T05:52:40.965Z,20.10
2023-04-29T05:55:11.262Z,19.37
2023-04-29T05:57:40.261Z,18.57
2023-04-29T06:00:12.278Z,17.90
2023-04-29T06:02:57.573Z,17.50
2023-04-29T06:05:28.962Z,17.27
2023-04-29T06:08:16.489Z,17.30
2023-04-29T06:10:52.278Z,18.37
2023-04-29T06:13:20.953Z,16.77
2023-04-29T06:15:51.889Z,18.50
2023-04-29T06:18:21.030Z,15.20
2023-04-29T06:20:49.350Z,16.30
2023-04-29T06:23:17.730Z,16.90
2023-04-29T06:25:46.818Z,15.60
2023-04-29T06:28:15.849Z,15.80
2023-04-29T06:30:45.815Z,14.70
2023-04-29T06:33:16.300Z,15.03
2023-04-29T06:35:44.768Z,16.53
2023-04-29T06:38:36.380Z,17.50
2023-04-29T06:41:23.747Z,17.40
2023-04-29T06:43:52.059Z,22.70
2023-04-29T06:46:40.128Z,21.60
2023-04-29T06:49:16.192Z,15.67
2023-04-29T06:51:44.602Z,15.50
2023-04-29T06:54:12.926Z,14.83
2023-04-29T06:56:41.710Z,14.07
2023-04-29T06:59:12.189Z,13.07
2023-04-29T07:01:42.625Z,14.97
2023-04-29T07:04:13.112Z,13.80
2023-04-29T07:06:46.769Z,13.73
2023-04-29T07:09:15.350Z,13.40
2023-04-29T07:11:43.807Z,13.40
2023-04-29T07:14:12.488Z,12.50
2023-04-29T07:16:40.859Z,14.47
2023-04-29T07:19:11.870Z,12.70
2023-04-29T07:21:40.257Z,13.27
2023-04-29T07:24:09.993Z,13.13
2023-04-29T07:26:38.231Z,13.70
2023-04-29T07:29:06.632Z,11.87
2023-04-29T07:31:37.406Z,10.47
2023-04-29T07:34:06.713Z,10.97
2023-04-29T07:36:35.563Z,12.10
2023-04-29T07:39:04.988Z,12.10
2023-04-29T07:41:35.075Z,12.30
2023-04-29T07:44:03.478Z,11.13
2023-04-29T07:46:32.096Z,11.13
2023-04-29T07:49:00.414Z,12.37
2023-04-29T07:51:29.802Z,12.67
2023-04-29T07:53:58.154Z,11.27
2023-04-29T07:56:26.466Z,11.30
2023-04-29T07:58:56.276Z,11.90
2023-04-29T08:01:24.758Z,13.00
2023-04-29T08:03:53.508Z,11.70
2023-04-29T08:06:24.195Z,10.67
2023-04-29T08:08:52.794Z,11.20
2023-04-29T08:11:22.388Z,11.77
2023-04-29T08:13:50.684Z,13.47
2023-04-29T08:16:21.742Z,11.67
2023-04-29T08:18:50.334Z,13.60
2023-04-29T08:21:18.886Z,11.73
2023-04-29T08:23:47.223Z,11.90
2023-04-29T08:26:15.671Z,11.40
2023-04-29T08:28:43.998Z,12.13
2023-04-29T08:31:18.415Z,12.03
2023-04-29T08:33:48.465Z,12.27
2023-04-29T08:36:16.793Z,11.97
2023-04-29T08:38:45.168Z,12.53
2023-04-29T08:41:15.406Z,12.40
2023-04-29T08:43:43.793Z,13.00
2023-04-29T08:46:12.903Z,12.10
2023-04-29T08:48:44.882Z,11.50
2023-04-29T08:51:15.025Z,13.77
2023-04-29T08:53:43.344Z,14.67
2023-04-29T08:56:17.567Z,13.20
2023-04-29T08:58:47.683Z,12.80
2023-04-29T09:01:16.343Z,12.67
2023-04-29T09:03:49.016Z,15.27
2023-04-29T09:06:19.537Z,13.80
2023-04-29T09:08:48.655Z,14.67
2023-04-29T09:11:17.439Z,14.40
2023-04-29T09:13:45.718Z,13.33
2023-04-29T09:16:14.254Z,17.87
2023-04-29T09:18:50.511Z,19.80
2023-04-29T09:21:22.596Z,19.03
2023-04-29T09:23:53.273Z,16.03
2023-04-29T09:26:22.571Z,15.50
2023-04-29T09:29:08.550Z,14.90
2023-04-29T09:31:39.224Z,17.43
2023-04-29T09:34:07.757Z,17.17
2023-04-29T09:36:46.177Z,16.30
2023-04-29T09:39:16.621Z,15.93
2023-04-29T09:42:00.332Z,16.00
2023-04-29T09:44:32.978Z,15.20
2023-04-29T09:47:04.027Z,16.80
2023-04-29T09:49:35.716Z,13.83
2023-04-29T09:52:06.917Z,14.80
2023-04-29T09:54:36.857Z,14.50
2023-04-29T09:57:07.090Z,15.00
2023-04-29T09:59:37.674Z,15.00
2023-04-29T10:02:11.775Z,15.30
2023-04-29T10:04:42.227Z,13.67
2023-04-29T10:07:16.685Z,14.13
2023-04-29T10:09:47.373Z,12.70
2023-04-29T10:12:18.711Z,14.20
2023-04-29T10:14:51.406Z,11.90
2023-04-29T10:17:25.611Z,13.03
2023-04-29T10:19:59.406Z,15.13
2023-04-29T10:22:36.672Z,20.07
2023-04-29T10:25:08.832Z,23.03
2023-04-29T10:27:38.579Z,18.40
2023-04-29T10:30:11.361Z,16.63
2023-04-29T10:32:51.075Z,14.40
2023-04-29T10:35:23.665Z,12.50
2023-04-29T10:37:54.691Z,13.00
2023-04-29T10:40:29.126Z,11.73
2023-04-29T10:42:57.912Z,12.30
2023-04-29T10:45:28.560Z,12.20
2023-04-29T10:48:16.554Z,10.90
2023-04-29T10:51:04.434Z,10.37
2023-04-29T10:53:34.430Z,12.60
2023-04-29T10:56:09.334Z,13.80
2023-04-29T10:58:47.757Z,12.17
2023-04-29T11:01:17.754Z,12.67
2023-04-29T11:03:59.424Z,11.67
2023-04-29T11:06:41.073Z,15.37
2023-04-29T11:09:14.475Z,14.17
2023-04-29T11:11:52.140Z,16.67
2023-04-29T11:14:25.475Z,14.03
2023-04-29T11:16:57.377Z,15.30
2023-04-29T11:19:28.629Z,13.80
2023-04-29T11:22:17.789Z,11.40
2023-04-29T11:24:56.215Z,11.30
2023-04-29T11:27:26.524Z,13.07
2023-04-29T11:29:58.669Z,26.27
2023-04-29T11:32:28.143Z,20.33
2023-04-29T11:34:56.792Z,16.40
2023-04-29T11:37:28.670Z,13.63
2023-04-29T11:40:02.355Z,13.80
2023-04-29T11:42:30.953Z,14.03
2023-04-29T11:45:00.558Z,13.10
2023-04-29T11:47:30.494Z,12.80
2023-04-29T11:50:06.005Z,15.27
2023-04-29T11:52:34.713Z,14.67
2023-04-29T11:55:04.875Z,14.30
2023-04-29T11:57:33.304Z,13.83
2023-04-29T12:00:02.311Z,14.17
2023-04-29T12:02:36.755Z,13.23
2023-04-29T12:05:08.729Z,11.00
2023-04-29T12:07:38.280Z,11.70
2023-04-29T12:10:11.743Z,11.83
2023-04-29T12:12:43.806Z,13.90
2023-04-29T12:15:13.843Z,11.53
2023-04-29T12:17:43.567Z,14.93
2023-04-29T12:20:13.049Z,16.70
2023-04-29T12:22:43.826Z,14.60
2023-04-29T12:25:13.884Z,13.80
2023-04-29T12:27:43.440Z,11.90
2023-04-29T12:30:12.792Z,17.90
2023-04-29T12:32:41.656Z,39.30
2023-04-29T12:35:17.613Z,29.43
2023-04-29T12:37:50.561Z,18.93
2023-04-29T12:40:21.061Z,16.17
2023-04-29T12:42:49.704Z,13.47
2023-04-29T12:45:29.035Z,11.37
2023-04-29T12:47:58.732Z,10.33
2023-04-29T12:50:34.388Z,11.97
2023-04-29T12:53:03.782Z,12.67
2023-04-29T12:55:35.532Z,12.60
2023-04-29T12:58:04.162Z,12.07
2023-04-29T13:00:32.866Z,10.10
2023-04-29T13:03:01.491Z,11.93
2023-04-29T13:05:30.018Z,9.17
2023-04-29T13:07:58.508Z,9.00
2023-04-29T13:10:28.362Z,8.93
2023-04-29T13:12:58.191Z,8.23
2023-04-29T13:15:27.040Z,8.67
2023-04-29T13:17:55.826Z,7.77
2023-04-29T13:20:24.205Z,7.80
2023-04-29T13:22:52.617Z,7.03
2023-04-29T13:25:21.218Z,7.23
2023-04-29T13:27:49.823Z,9.00
2023-04-29T13:30:19.554Z,8.07
2023-04-29T13:32:54.889Z,6.30
2023-04-29T13:35:25.119Z,8.77
2023-04-29T13:37:53.680Z,8.00
2023-04-29T13:40:22.244Z,6.67
2023-04-29T13:42:56.938Z,6.87
2023-04-29T13:45:39.042Z,6.10
2023-04-29T13:48:30.196Z,6.47
2023-04-29T13:51:33.299Z,5.00
2023-04-29T13:54:37.378Z,5.33
2023-04-29T14:02:21.397Z,5.07
2023-04-29T14:04:27.225Z,6.00
2023-04-29T14:06:55.915Z,5.80
2023-04-29T14:09:24.353Z,6.67
2023-04-29T14:11:52.671Z,6.60
2023-04-29T14:14:21.221Z,7.20
2023-04-29T14:16:50.918Z,6.17
2023-04-29T14:19:19.241Z,5.70
2023-04-29T14:21:47.671Z,6.50
2023-04-29T14:24:16.093Z,5.23
2023-04-29T14:26:44.434Z,6.20
2023-04-29T14:29:12.798Z,6.43
2023-04-29T14:31:41.778Z,5.63
2023-04-29T14:34:11.938Z,14.77
2023-04-29T14:36:41.096Z,12.83
2023-04-29T14:39:09.815Z,10.50
2023-04-29T14:41:38.145Z,8.77
2023-04-29T14:44:06.707Z,6.60
2023-04-29T14:46:35.226Z,7.13
2023-04-29T14:49:04.245Z,8.30
2023-04-29T14:51:34.026Z,6.70
2023-04-29T14:54:02.433Z,6.27
2023-04-29T14:56:31.263Z,7.20
2023-04-29T14:58:59.521Z,6.90
2023-04-29T15:01:30.526Z,7.50
2023-04-29T15:04:00.314Z,7.00
2023-04-29T15:06:28.806Z,6.07
2023-04-29T15:08:58.475Z,6.43
2023-04-29T15:11:27.086Z,6.20
2023-04-29T15:13:55.417Z,6.17
2023-04-29T15:16:23.880Z,6.23
2023-04-29T15:18:52.252Z,4.47
2023-04-29T15:21:21.097Z,4.70
2023-04-29T15:23:49.327Z,4.03
2023-04-29T15:26:19.264Z,3.87
2023-04-29T15:28:47.567Z,3.77
2023-04-29T15:31:15.982Z,4.63
2023-04-29T15:33:44.592Z,3.60
2023-04-29T15:36:13.385Z,3.87
2023-04-29T15:38:41.849Z,5.47
2023-04-29T15:41:10.109Z,5.53
2023-04-29T15:43:40.270Z,4.00
2023-04-29T15:46:08.693Z,6.87
2023-04-29T15:48:37.112Z,8.07
2023-04-29T15:51:05.598Z,7.37
2023-04-29T15:53:33.914Z,5.90
2023-04-29T15:56:02.503Z,5.33
2023-04-29T15:58:30.845Z,5.30
2023-04-29T16:01:00.506Z,4.63
2023-04-29T16:03:29.003Z,4.70
2023-04-29T16:05:57.495Z,5.63
2023-04-29T16:08:26.042Z,5.50
2023-04-29T16:10:54.474Z,6.60
2023-04-29T16:13:22.759Z,5.03
2023-04-29T16:15:51.144Z,4.90
2023-04-29T16:18:21.038Z,4.67
2023-04-29T16:20:49.499Z,4.90
2023-04-29T16:23:17.736Z,4.57
2023-04-29T16:25:46.040Z,4.57
2023-04-29T16:28:14.545Z,5.43
2023-04-29T16:30:42.944Z,6.50
2023-04-29T16:33:11.282Z,6.10
2023-04-29T16:35:41.013Z,4.70
2023-04-29T16:38:09.371Z,5.33
2023-04-29T16:40:37.751Z,4.63
2023-04-29T16:43:06.444Z,4.10
2023-04-29T16:45:34.969Z,5.90
2023-04-29T16:48:03.588Z,5.40
2023-04-29T16:50:31.988Z,5.23
2023-04-29T16:53:01.648Z,5.70
2023-04-29T16:55:30.252Z,5.07
2023-04-29T16:57:58.678Z,4.97
2023-04-29T17:00:27.443Z,4.27
2023-04-29T17:02:58.464Z,8.67
2023-04-29T17:05:27.583Z,15.20
2023-04-29T17:07:56.352Z,11.70
2023-04-29T17:10:26.034Z,7.97
2023-04-29T17:12:54.791Z,6.73
2023-04-29T17:15:23.126Z,4.73
2023-04-29T17:17:51.761Z,4.90
2023-04-29T17:20:21.764Z,4.20
2023-04-29T17:22:50.098Z,4.40
2023-04-29T17:25:18.410Z,3.53
2023-04-29T17:27:48.071Z,4.30
2023-04-29T17:30:16.471Z,4.23
2023-04-29T17:32:46.598Z,4.60
2023-04-29T17:35:14.924Z,4.00
2023-04-29T17:37:43.269Z,3.80
2023-04-29T17:40:12.072Z,3.60
2023-04-29T17:42:40.562Z,4.13
2023-04-29T17:45:11.798Z,3.83
2023-04-29T17:47:40.345Z,4.50
2023-04-29T17:50:09.515Z,4.70
2023-04-29T17:52:37.791Z,4.50
2023-04-29T17:55:06.882Z,4.30
2023-04-29T17:57:35.203Z,3.40
2023-04-29T18:00:04.818Z,3.67
2023-04-29T18:02:37.362Z,4.10
2023-04-29T18:05:06.402Z,4.70
2023-04-29T18:07:34.731Z,5.47
2023-04-29T18:10:03.129Z,4.13
2023-04-29T18:12:31.752Z,4.33
2023-04-29T18:15:00.851Z,3.80
2023-04-29T18:17:29.208Z,3.23
2023-04-29T18:19:59.058Z,3.87
2023-04-29T18:22:27.423Z,3.20
2023-04-29T18:24:57.932Z,2.73
2023-04-29T18:27:28.519Z,3.80
2023-04-29T18:29:57.346Z,3.37
2023-04-29T18:32:25.844Z,4.20
2023-04-29T18:34:54.701Z,3.30
2023-04-29T18:37:24.505Z,3.50
2023-04-29T18:39:53.451Z,3.57
2023-04-29T18:42:22.354Z,3.40
2023-04-29T18:44:51.402Z,3.57
2023-04-29T18:47:19.936Z,3.83
2023-04-29T18:49:48.529Z,3.50
2023-04-29T18:52:16.928Z,3.50
2023-04-29T18:54:46.602Z,4.23
2023-04-29T18:57:14.995Z,3.90
2023-04-29T18:59:43.519Z,3.70
2023-04-29T19:02:12.315Z,3.67
2023-04-29T19:04:40.945Z,3.70
2023-04-29T19:07:09.310Z,4.00
2023-04-29T19:09:38.192Z,3.73
2023-04-29T19:12:08.610Z,3.80
2023-04-29T19:14:38.519Z,3.43
2023-04-29T19:17:07.088Z,3.60
2023-04-29T19:19:35.585Z,3.67
2023-04-29T19:22:05.393Z,4.20
2023-04-29T19:24:35.487Z,4.60
2023-04-29T19:27:03.926Z,4.83
2023-04-29T19:29:33.947Z,5.90
2023-04-29T19:32:02.446Z,5.63
2023-04-29T19:34:31.397Z,5.33
2023-04-29T19:36:59.945Z,5.67
2023-04-29T19:39:28.919Z,5.23
2023-04-29T19:41:58.322Z,5.73
2023-04-29T19:44:26.722Z,4.73
2023-04-29T19:46:56.594Z,5.03
2023-04-29T19:49:25.075Z,4.20
2023-04-29T19:51:54.143Z,4.23
2023-04-29T19:54:22.657Z,4.07
2023-04-29T19:56:51.312Z,5.20
2023-04-29T19:59:19.742Z,4.57
2023-04-29T20:01:48.745Z,3.80
2023-04-29T20:04:18.868Z,4.97
2023-04-29T20:06:47.387Z,5.10
2023-04-29T20:09:15.734Z,4.20
2023-04-29T20:11:44.187Z,3.67
2023-04-29T20:14:12.604Z,4.43
2023-04-29T20:16:41.045Z,4.43
2023-04-29T20:19:09.543Z,4.80
2023-04-29T20:21:40.465Z,4.13
2023-04-29T20:24:08.938Z,5.60
2023-04-29T20:26:37.327Z,4.70
2023-04-29T20:29:05.834Z,4.93
2023-04-29T20:31:34.470Z,4.73
2023-04-29T20:34:03.083Z,4.33
2023-04-29T20:36:31.937Z,4.67
2023-04-29T20:39:02.255Z,4.83
2023-04-29T20:41:30.619Z,4.77
2023-04-29T20:43:59.868Z,5.20
2023-04-29T20:46:29.255Z,5.27
2023-04-29T20:48:57.658Z,4.70
2023-04-29T20:51:26.830Z,5.00
2023-04-29T20:53:55.451Z,4.47
2023-04-29T20:56:26.166Z,5.00
2023-04-29T20:58:56.536Z,4.90
2023-04-29T21:01:25.002Z,4.90
2023-04-29T21:03:53.451Z,4.67
2023-04-29T21:06:21.866Z,4.80
2023-04-29T21:08:50.230Z,5.40
2023-04-29T21:11:18.745Z,4.90
2023-04-29T21:13:50.310Z,5.70
2023-04-29T21:16:18.853Z,6.13
2023-04-29T21:18:47.368Z,5.07
2023-04-29T21:21:15.863Z,5.53
2023-04-29T21:23:44.710Z,5.70
2023-04-29T21:26:15.057Z,4.53
2023-04-29T21:28:43.591Z,6.03
2023-04-29T21:31:16.358Z,7.60
2023-04-29T21:33:45.697Z,7.67
2023-04-29T21:36:14.307Z,5.90
2023-04-29T21:38:43.142Z,5.60
2023-04-29T21:41:22.578Z,6.00
2023-04-29T21:43:51.705Z,6.00
2023-04-29T21:46:21.903Z,5.23
2023-04-29T21:48:50.297Z,5.20
2023-04-29T21:51:20.105Z,4.90
2023-04-29T21:53:48.475Z,5.33
2023-04-29T21:56:16.805Z,4.77
2023-04-29T21:58:45.662Z,5.47
2023-04-29T22:01:29.374Z,4.73
2023-04-29T22:03:59.214Z,4.40
2023-04-29T22:06:27.744Z,5.00
2023-04-29T22:08:56.421Z,6.17
2023-04-29T22:11:25.053Z,4.70
2023-04-29T22:13:53.580Z,4.83
2023-04-29T22:16:23.541Z,4.73
2023-04-29T22:18:52.185Z,4.17
2023-04-29T22:21:21.764Z,4.30
2023-04-29T22:23:50.277Z,4.17
2023-04-29T22:26:18.579Z,5.00
2023-04-29T22:28:46.989Z,4.80
2023-04-29T22:31:15.270Z,5.33
2023-04-29T22:33:43.461Z,5.07
2023-04-29T22:36:11.725Z,4.63
2023-04-29T22:38:41.438Z,5.17
2023-04-29T22:41:11.757Z,4.20
2023-04-29T22:43:40.111Z,4.33
2023-04-29T22:46:08.573Z,4.97
2023-04-29T22:48:36.952Z,5.13
2023-04-29T22:51:05.399Z,4.30
2023-04-29T22:53:33.772Z,5.20
2023-04-29T22:56:03.457Z,4.50
2023-04-29T22:58:32.670Z,4.70
2023-04-29T23:01:01.543Z,4.53
2023-04-29T23:03:29.896Z,3.77
2023-04-29T23:05:59.535Z,4.67
2023-04-29T23:08:28.258Z,3.70
2023-04-29T23:10:56.556Z,4.07
2023-04-29T23:13:26.254Z,4.50
2023-04-29T23:15:57.337Z,3.67
2023-04-29T23:18:25.638Z,4.30
2023-04-29T23:20:53.939Z,4.17
2023-04-29T23:23:22.233Z,3.80
2023-04-29T23:25:50.775Z,4.80
2023-04-29T23:28:18.998Z,4.70
2023-04-29T23:30:49.339Z,4.80
2023-04-29T23:33:17.799Z,4.50
2023-04-29T23:35:50.703Z,6.00
2023-04-29T23:38:19.859Z,5.13
2023-04-29T23:40:48.762Z,4.57
2023-04-29T23:43:17.278Z,5.30
2023-04-29T23:45:46.286Z,4.50
2023-04-29T23:48:16.789Z,4.53
2023-04-29T23:50:45.012Z,5.53
2023-04-29T23:53:13.462Z,5.20
2023-04-29T23:55:41.769Z,5.97
2023-04-29T23:58:10.091Z,5.50
